sensor_id;sensor_type;location;lat;lon;timestamp;pressure;altitude;pressure_sealevel;temperature;humidity
8140;BME280;4111;50.972;7.072;2023-01-31T00:01:29;102017.75;;;6.42;86.53
8140;BME280;4111;50.972;7.072;2023-01-31T00:03:58;102024.16;;;6.41;86.24
8140;BME280;4111;50.972;7.072;2023-01-31T00:06:31;102019.69;;;6.48;86.37
8140;BME280;4111;50.972;7.072;2023-01-31T00:08:59;102028.34;;;6.44;86.04
8140;BME280;4111;50.972;7.072;2023-01-31T00:11:27;102021.56;;;6.48;86.16
8140;BME280;4111;50.972;7.072;2023-01-31T00:13:54;102026.09;;;6.47;86.08
8140;BME280;4111;50.972;7.072;2023-01-31T00:16:21;102027.50;;;6.43;86.14
8140;BME280;4111;50.972;7.072;2023-01-31T00:18:48;102032.88;;;6.43;85.95
8140;BME280;4111;50.972;7.072;2023-01-31T00:21:19;102033.28;;;6.40;86.28
8140;BME280;4111;50.972;7.072;2023-01-31T00:23:47;102038.28;;;6.43;85.87
8140;BME280;4111;50.972;7.072;2023-01-31T00:26:19;102031.88;;;6.44;86.34
8140;BME280;4111;50.972;7.072;2023-01-31T00:28:47;102021.34;;;6.49;86.12
8140;BME280;4111;50.972;7.072;2023-01-31T00:31:15;102029.19;;;6.44;85.76
8140;BME280;4111;50.972;7.072;2023-01-31T00:33:43;102028.16;;;6.45;85.92
8140;BME280;4111;50.972;7.072;2023-01-31T00:36:12;102023.78;;;6.44;86.07
8140;BME280;4111;50.972;7.072;2023-01-31T00:38:39;102021.75;;;6.46;86.19
8140;BME280;4111;50.972;7.072;2023-01-31T00:41:07;102015.88;;;6.43;85.70
8140;BME280;4111;50.972;7.072;2023-01-31T00:43:34;102015.88;;;6.43;85.75
8140;BME280;4111;50.972;7.072;2023-01-31T00:46:01;102011.06;;;6.38;86.12
8140;BME280;4111;50.972;7.072;2023-01-31T00:48:28;102016.44;;;6.38;85.87
8140;BME280;4111;50.972;7.072;2023-01-31T00:50:54;102019.31;;;6.37;85.86
8140;BME280;4111;50.972;7.072;2023-01-31T00:53:21;102020.72;;;6.32;85.83
8140;BME280;4111;50.972;7.072;2023-01-31T00:55:53;102022.50;;;6.40;86.04
8140;BME280;4111;50.972;7.072;2023-01-31T00:58:20;102017.84;;;6.34;85.85
8140;BME280;4111;50.972;7.072;2023-01-31T01:00:47;102021.72;;;6.31;86.17
8140;BME280;4111;50.972;7.072;2023-01-31T01:03:14;102010.75;;;6.33;86.24
8140;BME280;4111;50.972;7.072;2023-01-31T01:05:40;102019.16;;;6.38;86.42
8140;BME280;4111;50.972;7.072;2023-01-31T01:08:07;102022.84;;;6.37;86.53
8140;BME280;4111;50.972;7.072;2023-01-31T01:10:33;102028.91;;;6.39;86.58
8140;BME280;4111;50.972;7.072;2023-01-31T01:13:01;102022.84;;;6.37;86.20
8140;BME280;4111;50.972;7.072;2023-01-31T01:15:27;102026.59;;;6.36;86.11
8140;BME280;4111;50.972;7.072;2023-01-31T01:17:54;102028.25;;;6.37;86.33
8140;BME280;4111;50.972;7.072;2023-01-31T01:20:22;102030.13;;;6.37;86.29
8140;BME280;4111;50.972;7.072;2023-01-31T01:22:48;102033.00;;;6.35;86.21
8140;BME280;4111;50.972;7.072;2023-01-31T01:25:15;102028.72;;;6.26;85.89
8140;BME280;4111;50.972;7.072;2023-01-31T01:27:41;102028.06;;;6.24;85.97
8140;BME280;4111;50.972;7.072;2023-01-31T01:30:08;102025.84;;;6.27;86.27
8140;BME280;4111;50.972;7.072;2023-01-31T01:32:35;102025.66;;;6.29;86.26
8140;BME280;4111;50.972;7.072;2023-01-31T01:35:02;102027.69;;;6.27;86.41
8140;BME280;4111;50.972;7.072;2023-01-31T01:37:29;102026.56;;;6.21;86.09
8140;BME280;4111;50.972;7.072;2023-01-31T01:39:55;102027.78;;;6.19;86.04
8140;BME280;4111;50.972;7.072;2023-01-31T01:42:23;102028.53;;;6.12;86.41
8140;BME280;4111;50.972;7.072;2023-01-31T01:44:57;102033.72;;;6.14;86.45
8140;BME280;4111;50.972;7.072;2023-01-31T01:47:39;102030.66;;;6.17;86.33
8140;BME280;4111;50.972;7.072;2023-01-31T01:50:27;102027.16;;;6.17;86.26
8140;BME280;4111;50.972;7.072;2023-01-31T01:53:17;102021.75;;;6.17;86.33
8140;BME280;4111;50.972;7.072;2023-01-31T01:58:22;102020.91;;;6.16;86.05
8140;BME280;4111;50.972;7.072;2023-01-31T02:00:50;102023.69;;;6.23;86.21
8140;BME280;4111;50.972;7.072;2023-01-31T02:03:17;102019.06;;;6.17;85.85
8140;BME280;4111;50.972;7.072;2023-01-31T02:05:53;102015.50;;;6.16;85.87
8140;BME280;4111;50.972;7.072;2023-01-31T02:08:22;102012.63;;;6.18;86.10
8140;BME280;4111;50.972;7.072;2023-01-31T02:11:03;102014.66;;;6.15;85.88
8140;BME280;4111;50.972;7.072;2023-01-31T02:13:31;102021.09;;;6.14;85.48
8140;BME280;4111;50.972;7.072;2023-01-31T02:15:58;102015.13;;;6.19;85.49
8140;BME280;4111;50.972;7.072;2023-01-31T02:18:25;102016.25;;;6.25;85.73
8140;BME280;4111;50.972;7.072;2023-01-31T02:26:53;102025.09;;;6.19;85.70
8140;BME280;4111;50.972;7.072;2023-01-31T02:32:19;102024.91;;;6.20;85.27
8140;BME280;4111;50.972;7.072;2023-01-31T02:37:56;102032.16;;;6.20;85.21
8140;BME280;4111;50.972;7.072;2023-01-31T02:46:33;102013.94;;;6.07;85.29
8140;BME280;4111;50.972;7.072;2023-01-31T02:49:16;102015.06;;;6.12;85.17
8140;BME280;4111;50.972;7.072;2023-01-31T02:52:20;102012.25;;;6.06;85.20
8140;BME280;4111;50.972;7.072;2023-01-31T02:58:06;102010.75;;;6.03;85.30
8140;BME280;4111;50.972;7.072;2023-01-31T03:00:35;102025.56;;;6.07;85.46
8140;BME280;4111;50.972;7.072;2023-01-31T03:03:05;102023.31;;;6.11;85.38
8140;BME280;4111;50.972;7.072;2023-01-31T03:05:33;102021.84;;;6.08;85.33
8140;BME280;4111;50.972;7.072;2023-01-31T03:08:01;102012.47;;;6.04;85.09
8140;BME280;4111;50.972;7.072;2023-01-31T03:10:54;102012.47;;;6.04;85.34
8140;BME280;4111;50.972;7.072;2023-01-31T03:16:16;102010.03;;;6.09;85.33
8140;BME280;4111;50.972;7.072;2023-01-31T03:19:19;102017.47;;;6.07;85.40
8140;BME280;4111;50.972;7.072;2023-01-31T03:21:55;102018.13;;;6.09;85.15
8140;BME280;4111;50.972;7.072;2023-01-31T03:24:23;102016.63;;;6.07;85.35
8140;BME280;4111;50.972;7.072;2023-01-31T03:26:54;102011.59;;;6.04;85.35
8140;BME280;4111;50.972;7.072;2023-01-31T03:29:23;102012.81;;;6.01;85.20
8140;BME280;4111;50.972;7.072;2023-01-31T03:32:07;102011.78;;;6.02;85.07
8140;BME280;4111;50.972;7.072;2023-01-31T03:34:37;102003.69;;;6.02;85.06
8140;BME280;4111;50.972;7.072;2023-01-31T03:40:12;102004.72;;;6.01;84.85
8140;BME280;4111;50.972;7.072;2023-01-31T03:45:29;101996.81;;;6.00;84.94
8140;BME280;4111;50.972;7.072;2023-01-31T03:47:59;102016.50;;;6.00;84.64
8140;BME280;4111;50.972;7.072;2023-01-31T03:50:33;102002.59;;;5.97;84.71
8140;BME280;4111;50.972;7.072;2023-01-31T03:53:10;102000.06;;;5.95;84.91
8140;BME280;4111;50.972;7.072;2023-01-31T03:56:24;102006.19;;;5.89;84.78
8140;BME280;4111;50.972;7.072;2023-01-31T03:58:57;102002.53;;;5.82;85.00
8140;BME280;4111;50.972;7.072;2023-01-31T04:01:27;102003.19;;;5.84;85.13
8140;BME280;4111;50.972;7.072;2023-01-31T04:04:03;102009.97;;;5.80;85.04
8140;BME280;4111;50.972;7.072;2023-01-31T04:06:32;102012.47;;;5.81;85.44
8140;BME280;4111;50.972;7.072;2023-01-31T04:08:59;102009.31;;;5.78;85.27
8140;BME280;4111;50.972;7.072;2023-01-31T04:11:26;101999.34;;;5.63;85.16
8140;BME280;4111;50.972;7.072;2023-01-31T04:13:53;101995.34;;;5.59;85.50
8140;BME280;4111;50.972;7.072;2023-01-31T04:16:20;101995.03;;;5.54;85.61
8140;BME280;4111;50.972;7.072;2023-01-31T04:18:46;101991.03;;;5.50;85.88
8140;BME280;4111;50.972;7.072;2023-01-31T04:21:13;101988.69;;;5.47;86.15
8140;BME280;4111;50.972;7.072;2023-01-31T04:23:40;101988.53;;;5.48;86.04
8140;BME280;4111;50.972;7.072;2023-01-31T04:26:07;101985.00;;;5.48;86.23
8140;BME280;4111;50.972;7.072;2023-01-31T04:28:33;101981.56;;;5.39;86.22
8140;BME280;4111;50.972;7.072;2023-01-31T04:31:00;101977.53;;;5.35;86.68
8140;BME280;4111;50.972;7.072;2023-01-31T04:33:26;101981.44;;;5.32;86.67
8140;BME280;4111;50.972;7.072;2023-01-31T04:35:53;101979.13;;;5.29;86.79
8140;BME280;4111;50.972;7.072;2023-01-31T04:38:19;101978.47;;;5.27;86.91
8140;BME280;4111;50.972;7.072;2023-01-31T04:40:46;101972.41;;;5.25;86.79
8140;BME280;4111;50.972;7.072;2023-01-31T04:43:12;101976.84;;;5.18;86.89
8140;BME280;4111;50.972;7.072;2023-01-31T04:45:39;101975.47;;;5.22;86.90
8140;BME280;4111;50.972;7.072;2023-01-31T04:48:06;101976.66;;;5.20;86.84
8140;BME280;4111;50.972;7.072;2023-01-31T04:50:33;101964.19;;;5.19;86.96
8140;BME280;4111;50.972;7.072;2023-01-31T04:52:59;101967.28;;;5.15;86.96
8140;BME280;4111;50.972;7.072;2023-01-31T04:55:26;101967.78;;;5.11;87.06
8140;BME280;4111;50.972;7.072;2023-01-31T04:57:53;101964.59;;;5.15;87.02
8140;BME280;4111;50.972;7.072;2023-01-31T05:00:19;101971.53;;;5.10;87.05
8140;BME280;4111;50.972;7.072;2023-01-31T05:02:46;101960.50;;;4.96;87.08
8140;BME280;4111;50.972;7.072;2023-01-31T05:05:13;101964.41;;;4.94;87.23
8140;BME280;4111;50.972;7.072;2023-01-31T05:07:39;101968.97;;;4.85;87.31
8140;BME280;4111;50.972;7.072;2023-01-31T05:10:06;101953.66;;;4.86;87.31
8140;BME280;4111;50.972;7.072;2023-01-31T05:12:33;101954.22;;;4.81;87.29
8140;BME280;4111;50.972;7.072;2023-01-31T05:14:59;101959.31;;;4.76;87.42
8140;BME280;4111;50.972;7.072;2023-01-31T05:17:26;101960.13;;;4.76;87.84
8140;BME280;4111;50.972;7.072;2023-01-31T05:19:56;101959.59;;;4.81;87.75
8140;BME280;4111;50.972;7.072;2023-01-31T05:22:22;101960.91;;;4.85;87.60
8140;BME280;4111;50.972;7.072;2023-01-31T05:24:49;101961.34;;;4.74;87.22
8140;BME280;4111;50.972;7.072;2023-01-31T05:27:16;101954.09;;;4.74;87.24
8140;BME280;4111;50.972;7.072;2023-01-31T05:29:43;101954.00;;;4.60;87.31
8140;BME280;4111;50.972;7.072;2023-01-31T05:32:10;101959.44;;;4.51;87.53
8140;BME280;4111;50.972;7.072;2023-01-31T05:34:37;101957.63;;;4.44;88.17
8140;BME280;4111;50.972;7.072;2023-01-31T05:37:03;101961.50;;;4.41;88.36
8140;BME280;4111;50.972;7.072;2023-01-31T05:39:30;101955.31;;;4.32;88.17
8140;BME280;4111;50.972;7.072;2023-01-31T05:41:57;101949.06;;;4.40;88.49
8140;BME280;4111;50.972;7.072;2023-01-31T05:44:24;101956.13;;;4.41;88.46
8140;BME280;4111;50.972;7.072;2023-01-31T05:46:50;101954.16;;;4.35;88.59
8140;BME280;4111;50.972;7.072;2023-01-31T05:49:16;101958.81;;;4.41;88.57
8140;BME280;4111;50.972;7.072;2023-01-31T05:51:43;101954.44;;;4.40;88.84
8140;BME280;4111;50.972;7.072;2023-01-31T05:54:10;101953.28;;;4.43;89.05
8140;BME280;4111;50.972;7.072;2023-01-31T05:56:37;101960.84;;;4.39;89.05
8140;BME280;4111;50.972;7.072;2023-01-31T05:59:04;101948.06;;;4.41;89.35
8140;BME280;4111;50.972;7.072;2023-01-31T06:01:31;101958.81;;;4.41;89.33
8140;BME280;4111;50.972;7.072;2023-01-31T06:03:57;101955.75;;;4.44;89.53
8140;BME280;4111;50.972;7.072;2023-01-31T06:06:24;101952.25;;;4.44;89.51
8140;BME280;4111;50.972;7.072;2023-01-31T06:08:51;101948.34;;;4.46;89.64
8140;BME280;4111;50.972;7.072;2023-01-31T06:11:17;101948.84;;;4.50;89.74
8140;BME280;4111;50.972;7.072;2023-01-31T06:13:44;101940.94;;;4.56;89.81
8140;BME280;4111;50.972;7.072;2023-01-31T06:16:11;101935.00;;;4.61;89.63
8140;BME280;4111;50.972;7.072;2023-01-31T06:18:37;101941.59;;;4.59;89.72
8140;BME280;4111;50.972;7.072;2023-01-31T06:21:04;101936.22;;;4.59;89.97
8140;BME280;4111;50.972;7.072;2023-01-31T06:23:31;101935.00;;;4.61;89.67
8140;BME280;4111;50.972;7.072;2023-01-31T06:26:00;101934.19;;;4.61;90.24
8140;BME280;4111;50.972;7.072;2023-01-31T06:28:27;101929.47;;;4.63;90.52
8140;BME280;4111;50.972;7.072;2023-01-31T06:30:53;101925.38;;;4.67;90.74
8140;BME280;4111;50.972;7.072;2023-01-31T06:33:20;101912.59;;;4.69;90.75
8140;BME280;4111;50.972;7.072;2023-01-31T06:36:00;101918.97;;;4.68;90.73
8140;BME280;4111;50.972;7.072;2023-01-31T06:38:27;101926.06;;;4.69;91.17
8140;BME280;4111;50.972;7.072;2023-01-31T06:40:54;101918.63;;;4.71;91.35
8140;BME280;4111;50.972;7.072;2023-01-31T06:43:21;101918.28;;;4.74;91.27
8140;BME280;4111;50.972;7.072;2023-01-31T06:45:48;101912.53;;;4.77;91.45
8140;BME280;4111;50.972;7.072;2023-01-31T06:48:15;101919.59;;;4.78;91.54
8140;BME280;4111;50.972;7.072;2023-01-31T06:50:42;101909.06;;;4.91;91.70
8140;BME280;4111;50.972;7.072;2023-01-31T06:53:10;101913.25;;;4.94;91.34
8140;BME280;4111;50.972;7.072;2023-01-31T06:55:37;101931.06;;;4.95;91.28
8140;BME280;4111;50.972;7.072;2023-01-31T06:58:04;101932.56;;;4.97;91.46
8140;BME280;4111;50.972;7.072;2023-01-31T07:00:30;101934.25;;;4.99;91.47
8140;BME280;4111;50.972;7.072;2023-01-31T07:02:57;101925.09;;;5.08;91.26
8140;BME280;4111;50.972;7.072;2023-01-31T07:05:23;101929.94;;;5.12;91.55
8140;BME280;4111;50.972;7.072;2023-01-31T07:07:50;101932.44;;;5.14;91.20
8140;BME280;4111;50.972;7.072;2023-01-31T07:10:17;101930.59;;;5.14;90.98
8140;BME280;4111;50.972;7.072;2023-01-31T07:12:43;101942.19;;;5.15;90.72
8140;BME280;4111;50.972;7.072;2023-01-31T07:15:10;101936.44;;;5.18;90.88
8140;BME280;4111;50.972;7.072;2023-01-31T07:17:36;101940.53;;;5.14;91.20
8140;BME280;4111;50.972;7.072;2023-01-31T07:20:03;101937.09;;;5.20;91.02
8140;BME280;4111;50.972;7.072;2023-01-31T07:22:30;101940.63;;;5.21;91.29
8140;BME280;4111;50.972;7.072;2023-01-31T07:24:56;101941.94;;;5.25;91.17
8140;BME280;4111;50.972;7.072;2023-01-31T07:27:23;101936.69;;;5.31;91.08
8140;BME280;4111;50.972;7.072;2023-01-31T07:29:49;101944.75;;;5.31;90.57
8140;BME280;4111;50.972;7.072;2023-01-31T07:32:16;101943.25;;;5.29;90.70
8140;BME280;4111;50.972;7.072;2023-01-31T07:34:43;101956.91;;;5.27;90.64
8140;BME280;4111;50.972;7.072;2023-01-31T07:37:09;101939.41;;;5.23;90.73
8140;BME280;4111;50.972;7.072;2023-01-31T07:39:36;101938.25;;;5.26;90.54
8140;BME280;4111;50.972;7.072;2023-01-31T07:42:02;101934.34;;;5.28;90.93
8140;BME280;4111;50.972;7.072;2023-01-31T07:44:29;101932.94;;;5.32;90.90
8140;BME280;4111;50.972;7.072;2023-01-31T07:46:56;101928.50;;;5.40;90.71
8140;BME280;4111;50.972;7.072;2023-01-31T07:49:22;101917.75;;;5.40;90.70
8140;BME280;4111;50.972;7.072;2023-01-31T07:51:49;101918.00;;;5.45;90.36
8140;BME280;4111;50.972;7.072;2023-01-31T07:54:15;101915.78;;;5.48;90.47
8140;BME280;4111;50.972;7.072;2023-01-31T07:56:42;101914.22;;;5.54;90.26
8140;BME280;4111;50.972;7.072;2023-01-31T07:59:08;101913.47;;;5.60;90.16
8140;BME280;4111;50.972;7.072;2023-01-31T08:01:35;101899.00;;;5.61;90.03
8140;BME280;4111;50.972;7.072;2023-01-31T08:04:20;101910.97;;;5.73;89.85
8140;BME280;4111;50.972;7.072;2023-01-31T08:06:50;101906.25;;;5.75;89.36
8140;BME280;4111;50.972;7.072;2023-01-31T08:09:24;101914.97;;;5.78;89.00
8140;BME280;4111;50.972;7.072;2023-01-31T08:11:52;101900.09;;;5.82;88.47
8140;BME280;4111;50.972;7.072;2023-01-31T08:14:19;101898.34;;;5.89;88.27
8140;BME280;4111;50.972;7.072;2023-01-31T08:16:51;101903.91;;;5.87;87.70
8140;BME280;4111;50.972;7.072;2023-01-31T08:19:18;101916.81;;;5.92;87.35
8140;BME280;4111;50.972;7.072;2023-01-31T08:21:44;101926.53;;;6.01;87.21
8140;BME280;4111;50.972;7.072;2023-01-31T08:24:11;101917.69;;;6.07;86.63
8140;BME280;4111;50.972;7.072;2023-01-31T08:26:37;101918.34;;;6.09;86.31
8140;BME280;4111;50.972;7.072;2023-01-31T08:29:04;101929.41;;;6.14;85.70
8140;BME280;4111;50.972;7.072;2023-01-31T08:31:30;101915.53;;;6.18;85.32
8140;BME280;4111;50.972;7.072;2023-01-31T08:33:57;101909.31;;;6.17;85.05
8140;BME280;4111;50.972;7.072;2023-01-31T08:36:27;101895.06;;;6.23;84.76
8140;BME280;4111;50.972;7.072;2023-01-31T08:38:55;101899.81;;;6.21;84.67
8140;BME280;4111;50.972;7.072;2023-01-31T08:41:23;101905.66;;;6.25;84.64
8140;BME280;4111;50.972;7.072;2023-01-31T08:43:50;101900.75;;;6.28;84.18
8140;BME280;4111;50.972;7.072;2023-01-31T08:46:24;101884.81;;;6.33;84.08
8140;BME280;4111;50.972;7.072;2023-01-31T08:48:52;101886.31;;;6.36;83.69
8140;BME280;4111;50.972;7.072;2023-01-31T08:51:18;101885.44;;;6.35;83.85
8140;BME280;4111;50.972;7.072;2023-01-31T08:53:45;101886.75;;;6.40;83.64
8140;BME280;4111;50.972;7.072;2023-01-31T08:56:13;101894.28;;;6.44;83.63
8140;BME280;4111;50.972;7.072;2023-01-31T08:58:42;101891.94;;;6.41;83.25
8140;BME280;4111;50.972;7.072;2023-01-31T09:01:11;101890.06;;;6.42;83.29
8140;BME280;4111;50.972;7.072;2023-01-31T09:03:38;101894.28;;;6.44;83.55
8140;BME280;4111;50.972;7.072;2023-01-31T09:06:09;101890.53;;;6.45;83.55
8140;BME280;4111;50.972;7.072;2023-01-31T09:08:36;101884.13;;;6.46;83.58
8140;BME280;4111;50.972;7.072;2023-01-31T09:11:02;101878.97;;;6.51;83.52
8140;BME280;4111;50.972;7.072;2023-01-31T09:13:30;101877.38;;;6.57;83.71
8140;BME280;4111;50.972;7.072;2023-01-31T09:16:05;101877.00;;;6.60;83.77
8140;BME280;4111;50.972;7.072;2023-01-31T09:18:35;101866.22;;;6.60;83.73
8140;BME280;4111;50.972;7.072;2023-01-31T09:21:11;101869.47;;;6.55;83.39
8140;BME280;4111;50.972;7.072;2023-01-31T09:23:38;101858.31;;;6.59;84.10
8140;BME280;4111;50.972;7.072;2023-01-31T09:26:08;101856.06;;;6.62;83.71
8140;BME280;4111;50.972;7.072;2023-01-31T09:28:34;101862.94;;;6.65;83.98
8140;BME280;4111;50.972;7.072;2023-01-31T09:31:06;101857.97;;;6.68;84.33
8140;BME280;4111;50.972;7.072;2023-01-31T09:33:34;101855.09;;;6.70;84.39
8140;BME280;4111;50.972;7.072;2023-01-31T09:36:05;101855.94;;;6.70;84.75
8140;BME280;4111;50.972;7.072;2023-01-31T09:38:32;101845.59;;;6.74;85.37
8140;BME280;4111;50.972;7.072;2023-01-31T09:41:03;101854.31;;;6.76;85.59
8140;BME280;4111;50.972;7.072;2023-01-31T09:43:35;101854.69;;;6.73;85.99
8140;BME280;4111;50.972;7.072;2023-01-31T09:46:05;101849.94;;;6.75;86.50
8140;BME280;4111;50.972;7.072;2023-01-31T09:48:34;101856.19;;;6.75;87.05
8140;BME280;4111;50.972;7.072;2023-01-31T09:51:04;101845.97;;;6.71;87.17
8140;BME280;4111;50.972;7.072;2023-01-31T09:53:33;101858.03;;;6.75;87.42
8140;BME280;4111;50.972;7.072;2023-01-31T09:59:13;101840.97;;;6.68;88.58
8140;BME280;4111;50.972;7.072;2023-01-31T10:01:58;101830.72;;;6.63;88.75
8140;BME280;4111;50.972;7.072;2023-01-31T10:04:41;101820.56;;;6.65;89.36
8140;BME280;4111;50.972;7.072;2023-01-31T10:07:31;101826.81;;;6.66;89.51
8140;BME280;4111;50.972;7.072;2023-01-31T10:10:10;101828.03;;;6.63;90.33
8140;BME280;4111;50.972;7.072;2023-01-31T10:12:48;101828.47;;;6.67;90.10
8140;BME280;4111;50.972;7.072;2023-01-31T10:20:48;101815.63;;;6.69;90.80
8140;BME280;4111;50.972;7.072;2023-01-31T10:23:29;101811.28;;;6.68;91.00
8140;BME280;4111;50.972;7.072;2023-01-31T10:26:00;101809.84;;;6.72;90.74
8140;BME280;4111;50.972;7.072;2023-01-31T10:28:47;101810.31;;;6.75;90.89
8140;BME280;4111;50.972;7.072;2023-01-31T10:33:59;101806.19;;;6.80;90.68
8140;BME280;4111;50.972;7.072;2023-01-31T10:39:01;101786.69;;;6.84;90.69
8140;BME280;4111;50.972;7.072;2023-01-31T10:44:26;101780.50;;;6.90;91.08
8140;BME280;4111;50.972;7.072;2023-01-31T10:46:59;101773.47;;;6.96;91.03
8140;BME280;4111;50.972;7.072;2023-01-31T10:49:26;101771.59;;;6.97;91.73
8140;BME280;4111;50.972;7.072;2023-01-31T10:55:03;101755.38;;;6.90;91.79
8140;BME280;4111;50.972;7.072;2023-01-31T10:57:32;101752.47;;;6.91;91.91
8140;BME280;4111;50.972;7.072;2023-01-31T10:59:59;101749.38;;;6.94;91.78
8140;BME280;4111;50.972;7.072;2023-01-31T11:02:27;101747.31;;;6.97;91.97
8140;BME280;4111;50.972;7.072;2023-01-31T11:04:58;101752.50;;;6.98;91.35
8140;BME280;4111;50.972;7.072;2023-01-31T11:07:29;101740.47;;;7.01;90.93
8140;BME280;4111;50.972;7.072;2023-01-31T11:09:56;101713.31;;;7.09;90.95
8140;BME280;4111;50.972;7.072;2023-01-31T11:12:41;101712.94;;;7.19;90.49
8140;BME280;4111;50.972;7.072;2023-01-31T11:15:17;101723.00;;;7.31;89.90
8140;BME280;4111;50.972;7.072;2023-01-31T11:17:45;101704.72;;;7.33;89.47
8140;BME280;4111;50.972;7.072;2023-01-31T11:22:47;101693.09;;;7.40;88.32
8140;BME280;4111;50.972;7.072;2023-01-31T11:25:19;101692.72;;;7.43;87.74
8140;BME280;4111;50.972;7.072;2023-01-31T11:27:48;101689.19;;;7.49;87.88
8140;BME280;4111;50.972;7.072;2023-01-31T11:30:21;101677.78;;;7.60;87.64
8140;BME280;4111;50.972;7.072;2023-01-31T11:32:49;101690.31;;;7.74;87.40
8140;BME280;4111;50.972;7.072;2023-01-31T11:37:51;101684.06;;;7.81;86.60
8140;BME280;4111;50.972;7.072;2023-01-31T11:45:23;101675.56;;;7.97;86.04
8140;BME280;4111;50.972;7.072;2023-01-31T11:47:57;101669.13;;;7.98;85.81
8140;BME280;4111;50.972;7.072;2023-01-31T11:50:31;101664.97;;;8.02;85.67
8140;BME280;4111;50.972;7.072;2023-01-31T11:53:00;101661.03;;;7.98;85.53
8140;BME280;4111;50.972;7.072;2023-01-31T11:55:35;101659.97;;;7.99;85.04
8140;BME280;4111;50.972;7.072;2023-01-31T11:58:12;101654.56;;;7.92;85.18
8140;BME280;4111;50.972;7.072;2023-01-31T12:00:54;101635.44;;;7.94;84.83
8140;BME280;4111;50.972;7.072;2023-01-31T12:03:22;101649.56;;;7.96;84.95
8140;BME280;4111;50.972;7.072;2023-01-31T12:05:59;101636.69;;;7.98;85.30
8140;BME280;4111;50.972;7.072;2023-01-31T12:10:56;101630.22;;;7.92;84.84
8140;BME280;4111;50.972;7.072;2023-01-31T12:13:23;101628.34;;;7.93;84.98
8140;BME280;4111;50.972;7.072;2023-01-31T12:15:59;101631.66;;;7.95;85.22
8140;BME280;4111;50.972;7.072;2023-01-31T12:21:38;101630.84;;;8.01;85.56
8140;BME280;4111;50.972;7.072;2023-01-31T12:26:53;101629.38;;;7.99;85.55
8140;BME280;4111;50.972;7.072;2023-01-31T12:47:00;101611.50;;;8.18;88.20
8140;BME280;4111;50.972;7.072;2023-01-31T13:00:41;101605.44;;;8.29;87.63
8140;BME280;4111;50.972;7.072;2023-01-31T13:06:38;101600.88;;;8.29;88.34
8140;BME280;4111;50.972;7.072;2023-01-31T13:09:20;101601.25;;;8.33;88.43
8140;BME280;4111;50.972;7.072;2023-01-31T13:12:03;101604.59;;;8.35;88.60
8140;BME280;4111;50.972;7.072;2023-01-31T13:14:43;101602.94;;;8.34;88.47
8140;BME280;4111;50.972;7.072;2023-01-31T13:17:16;101589.63;;;8.32;88.59
8140;BME280;4111;50.972;7.072;2023-01-31T13:19:48;101580.88;;;8.30;88.62
8140;BME280;4111;50.972;7.072;2023-01-31T13:22:26;101589.63;;;8.32;88.73
8140;BME280;4111;50.972;7.072;2023-01-31T13:25:33;101594.38;;;8.37;88.72
8140;BME280;4111;50.972;7.072;2023-01-31T13:28:08;101595.84;;;8.33;88.65
8140;BME280;4111;50.972;7.072;2023-01-31T13:30:41;101595.06;;;8.26;89.06
8140;BME280;4111;50.972;7.072;2023-01-31T13:33:20;101619.41;;;8.26;89.30
8140;BME280;4111;50.972;7.072;2023-01-31T13:36:24;101609.81;;;8.17;89.55
8140;BME280;4111;50.972;7.072;2023-01-31T13:38:55;101617.34;;;8.08;89.62
8140;BME280;4111;50.972;7.072;2023-01-31T13:43:52;101589.44;;;8.07;90.15
8140;BME280;4111;50.972;7.072;2023-01-31T13:46:21;101583.00;;;8.02;90.46
8140;BME280;4111;50.972;7.072;2023-01-31T13:49:00;101588.63;;;8.00;90.79
8140;BME280;4111;50.972;7.072;2023-01-31T13:51:34;101592.97;;;7.94;90.90
8140;BME280;4111;50.972;7.072;2023-01-31T13:54:07;101597.34;;;7.95;91.55
8140;BME280;4111;50.972;7.072;2023-01-31T13:56:40;101603.38;;;7.91;91.95
8140;BME280;4111;50.972;7.072;2023-01-31T13:59:09;101601.72;;;7.83;92.45
8140;BME280;4111;50.972;7.072;2023-01-31T14:01:43;101597.34;;;7.89;93.37
8140;BME280;4111;50.972;7.072;2023-01-31T14:09:29;101598.38;;;7.74;95.59
8140;BME280;4111;50.972;7.072;2023-01-31T14:17:04;101603.78;;;7.61;97.80
8140;BME280;4111;50.972;7.072;2023-01-31T14:22:33;101590.25;;;7.61;99.46
8140;BME280;4111;50.972;7.072;2023-01-31T14:25:39;101605.41;;;7.55;100.00
8140;BME280;4111;50.972;7.072;2023-01-31T14:57:37;101589.00;;;7.50;100.00
8140;BME280;4111;50.972;7.072;2023-01-31T15:00:17;101579.63;;;7.46;100.00
8140;BME280;4111;50.972;7.072;2023-01-31T15:03:04;101584.19;;;7.46;100.00
8140;BME280;4111;50.972;7.072;2023-01-31T15:13:42;101594.81;;;7.47;100.00
8140;BME280;4111;50.972;7.072;2023-01-31T15:16:18;101593.56;;;7.50;100.00
8140;BME280;4111;50.972;7.072;2023-01-31T15:18:48;101593.56;;;7.50;100.00
8140;BME280;4111;50.972;7.072;2023-01-31T15:21:26;101587.56;;;7.54;100.00
8140;BME280;4111;50.972;7.072;2023-01-31T15:23:54;101600.84;;;7.56;100.00
8140;BME280;4111;50.972;7.072;2023-01-31T15:26:24;101607.91;;;7.50;100.00
8140;BME280;4111;50.972;7.072;2023-01-31T15:28:52;101604.16;;;7.45;100.00
8140;BME280;4111;50.972;7.072;2023-01-31T15:31:24;101617.44;;;7.46;100.00
8140;BME280;4111;50.972;7.072;2023-01-31T15:33:57;101614.56;;;7.54;100.00
8140;BME280;4111;50.972;7.072;2023-01-31T15:36:50;101622.88;;;7.53;100.00
8140;BME280;4111;50.972;7.072;2023-01-31T15:39:22;101621.63;;;7.49;100.00
8140;BME280;4111;50.972;7.072;2023-01-31T15:41:52;101627.22;;;7.47;100.00
8140;BME280;4111;50.972;7.072;2023-01-31T15:44:24;101622.66;;;7.48;100.00
8140;BME280;4111;50.972;7.072;2023-01-31T15:46:53;101622.66;;;7.48;100.00
8140;BME280;4111;50.972;7.072;2023-01-31T15:49:21;101630.75;;;7.48;100.00
8140;BME280;4111;50.972;7.072;2023-01-31T15:54:33;101623.72;;;7.47;100.00
8140;BME280;4111;50.972;7.072;2023-01-31T15:57:01;101617.03;;;7.43;100.00
8140;BME280;4111;50.972;7.072;2023-01-31T15:59:30;101632.22;;;7.44;100.00
8140;BME280;4111;50.972;7.072;2023-01-31T16:01:59;101623.09;;;7.45;100.00
8140;BME280;4111;50.972;7.072;2023-01-31T16:04:27;101632.84;;;7.46;100.00
8140;BME280;4111;50.972;7.072;2023-01-31T16:06:54;101629.13;;;7.47;100.00
8140;BME280;4111;50.972;7.072;2023-01-31T16:09:25;101628.69;;;7.50;100.00
8140;BME280;4111;50.972;7.072;2023-01-31T16:11:52;101629.31;;;7.52;100.00
8140;BME280;4111;50.972;7.072;2023-01-31T16:14:20;101632.00;;;7.52;100.00
8140;BME280;4111;50.972;7.072;2023-01-31T16:16:50;101631.00;;;7.53;100.00